createdAt,value
2022-08-07T05:26:42.068Z,99565.22
2022-08-07T05:29:59.723Z,99573.47
2022-08-07T05:33:21.379Z,99579.41
2022-08-07T05:36:35.467Z,99575.75
2022-08-07T05:40:05.517Z,99572.59
2022-08-07T05:43:49.681Z,99575.59
2022-08-07T05:46:51.682Z,99575.75
2022-08-07T05:50:10.066Z,99573.47
2022-08-07T05:54:13.264Z,99574.75
2022-08-07T05:56:55.600Z,99584.56
2022-08-07T06:00:15.940Z,99574.41
2022-08-07T06:03:56.550Z,99575.03
2022-08-07T06:07:11.674Z,99566.28
2022-08-07T06:10:34.423Z,99575.66
2022-08-07T06:14:13.254Z,99577.81
2022-08-07T06:17:30.606Z,99567.19
2022-08-07T06:20:51.074Z,99571.38
2022-08-07T06:24:45.896Z,99578.88
2022-08-07T06:28:01.518Z,99570.03
2022-08-07T06:31:19.622Z,99562.91
2022-08-07T06:34:33.751Z,99563.97
2022-08-07T06:37:45.471Z,99566.28
2022-08-07T06:41:01.391Z,99574.88
2022-08-07T06:44:13.704Z,99556.22
2022-08-07T06:47:28.754Z,99562.06
2022-08-07T06:51:07.977Z,99553.97
2022-08-07T06:55:33.100Z,99557.81
2022-08-07T06:57:56.376Z,99559.19
2022-08-07T07:01:11.789Z,99545.03
2022-08-07T07:04:33.308Z,99542.66
2022-08-07T07:07:59.441Z,99534.66
2022-08-07T07:12:07.789Z,99536.06
2022-08-07T07:14:52.697Z,99540.94
2022-08-07T07:18:08.461Z,99535.66
2022-08-07T07:21:26.982Z,99534.72
2022-08-07T07:24:56.732Z,99530.66
2022-08-07T07:28:29.683Z,99523.75
2022-08-07T07:31:52.393Z,99531.47
2022-08-07T07:35:04.808Z,99524.47
2022-08-07T07:38:22.776Z,99518.81
2022-08-07T07:42:02.086Z,99509.22
2022-08-07T07:45:17.325Z,99511.84
2022-08-07T07:48:36.013Z,99506.94
2022-08-07T07:51:58.406Z,99504.25
2022-08-07T07:55:15.294Z,99500.25
2022-08-07T07:58:30.640Z,99499.25
2022-08-07T08:02:02.299Z,99505.50
2022-08-07T08:05:19.494Z,99498.34
2022-08-07T08:08:37.007Z,99499.09
2022-08-07T08:11:59.850Z,99497.56
2022-08-07T08:15:16.194Z,99493.72
2022-08-07T08:18:31.538Z,99498.84
2022-08-07T08:22:00.623Z,99490.84
2022-08-07T08:25:42.199Z,99482.03
2022-08-07T08:28:57.494Z,99475.31
2022-08-07T08:32:18.733Z,99484.72
2022-08-07T08:35:39.045Z,99484.94
2022-08-07T08:38:55.238Z,99474.13
2022-08-07T08:42:12.653Z,99474.41
2022-08-07T08:45:59.501Z,99460.81
2022-08-07T08:49:10.901Z,99466.75
2022-08-07T08:52:32.160Z,99464.16
2022-08-07T08:55:58.520Z,99458.84
2022-08-07T08:59:21.021Z,99461.31
2022-08-07T09:02:42.065Z,99463.09
2022-08-07T09:06:02.274Z,99460.22
2022-08-07T09:09:30.262Z,99453.13
2022-08-07T09:12:54.780Z,99453.19
2022-08-07T09:16:22.881Z,99443.91
2022-08-07T09:19:54.772Z,99444.03
2022-08-07T09:24:33.477Z,99454.03
2022-08-07T09:27:17.755Z,99451.22
2022-08-07T09:30:34.314Z,99435.81
2022-08-07T09:33:59.845Z,99435.13
2022-08-07T09:37:33.384Z,99429.59
2022-08-07T09:41:03.766Z,99437.13
2022-08-07T09:44:46.584Z,99423.78
2022-08-07T09:48:14.653Z,99422.81
2022-08-07T09:52:10.543Z,99425.69
2022-08-07T09:56:02.472Z,99408.28
2022-08-07T09:59:21.962Z,99410.06
2022-08-07T10:02:55.883Z,99400.22
2022-08-07T10:06:27.990Z,99397.78
2022-08-07T10:10:01.006Z,99385.78
2022-08-07T10:14:00.767Z,99387.94
2022-08-07T10:17:16.680Z,99388.03
2022-08-07T10:20:38.265Z,99381.44
2022-08-07T10:24:08.763Z,99374.78
2022-08-07T10:27:46.266Z,99376.00
2022-08-07T10:31:11.758Z,99354.59
2022-08-07T10:34:40.978Z,99377.38
2022-08-07T10:38:35.500Z,99359.81
2022-08-07T10:42:00.335Z,99375.56
2022-08-07T10:45:44.847Z,99360.28
2022-08-07T10:49:10.030Z,99363.66
2022-08-07T10:52:35.485Z,99356.41
2022-08-07T10:55:53.347Z,99351.97
2022-08-07T10:59:15.661Z,99349.59
2022-08-07T11:02:37.931Z,99354.81
2022-08-07T11:05:56.846Z,99358.47
2022-08-07T11:10:07.948Z,99346.28
2022-08-07T11:13:01.730Z,99346.31
2022-08-07T11:16:19.634Z,99344.72
2022-08-07T11:19:37.539Z,99341.22
2022-08-07T11:22:56.453Z,99334.25
2022-08-07T11:26:14.323Z,99340.31
2022-08-07T11:29:41.726Z,99325.34
2022-08-07T11:33:03.005Z,99322.72
2022-08-07T11:36:39.313Z,99313.22
2022-08-07T11:40:03.804Z,99310.72
2022-08-07T11:43:41.597Z,99316.88
2022-08-07T11:47:05.593Z,99312.50
2022-08-07T11:50:31.734Z,99303.63
2022-08-07T11:54:00.882Z,99316.56
2022-08-07T11:57:58.105Z,99298.94
2022-08-07T12:01:05.067Z,99304.25
2022-08-07T12:04:37.321Z,99301.81
2022-08-07T12:08:03.869Z,99293.03
2022-08-07T12:11:22.461Z,99295.66
2022-08-07T12:14:39.552Z,99297.56
2022-08-07T12:17:59.544Z,99289.59
2022-08-07T12:22:36.720Z,99289.59
2022-08-07T12:26:05.529Z,99292.25
2022-08-07T12:28:57.978Z,99286.03
2022-08-07T12:32:16.630Z,99272.78
2022-08-07T12:35:36.137Z,99263.03
2022-08-07T12:38:57.697Z,99270.13
2022-08-07T12:42:08.857Z,99265.72
2022-08-07T12:45:27.136Z,99264.84
2022-08-07T12:48:53.238Z,99254.13
2022-08-07T12:52:17.943Z,99262.13
2022-08-07T12:55:41.151Z,99256.81
2022-08-07T12:59:04.875Z,99265.66
2022-08-07T13:02:43.539Z,99262.09
2022-08-07T13:06:26.939Z,99257.66
2022-08-07T13:10:19.283Z,99245.03
2022-08-07T13:13:50.082Z,99250.00
2022-08-07T13:17:07.001Z,99242.03
2022-08-07T13:20:27.846Z,99251.22
2022-08-07T13:24:00.554Z,99245.84
2022-08-07T13:27:20.726Z,99244.84
2022-08-07T13:30:41.257Z,99238.84
2022-08-07T13:34:30.479Z,99235.31
2022-08-07T13:37:40.551Z,99234.50
2022-08-07T13:41:02.203Z,99221.19
2022-08-07T13:44:13.947Z,99230.19
2022-08-07T13:47:28.717Z,99222.97
2022-08-07T13:51:02.167Z,99222.63
2022-08-07T13:54:35.431Z,99215.28
2022-08-07T13:57:59.227Z,99216.16
2022-08-07T14:01:16.534Z,99214.91
2022-08-07T14:04:35.610Z,99210.69
2022-08-07T14:07:59.270Z,99206.22
2022-08-07T14:11:18.919Z,99213.13
2022-08-07T14:14:32.957Z,99203.38
2022-08-07T14:18:23.892Z,99206.06
2022-08-07T14:22:02.595Z,99196.38
2022-08-07T14:24:55.406Z,99190.97
2022-08-07T14:28:13.391Z,99196.25
2022-08-07T14:31:43.387Z,99190.81
2022-08-07T14:35:03.890Z,99188.22
2022-08-07T14:38:26.482Z,99195.44
2022-08-07T14:42:19.984Z,99189.19
2022-08-07T14:45:21.294Z,99183.47
2022-08-07T14:48:38.839Z,99170.03
2022-08-07T14:52:03.661Z,99176.03
2022-08-07T14:55:17.442Z,99179.53
2022-08-07T14:58:34.872Z,99176.38
2022-08-07T15:01:51.134Z,99176.38
2022-08-07T15:05:02.169Z,99176.38
2022-08-07T15:08:13.973Z,99176.78
2022-08-07T15:15:07.845Z,99170.00
2022-08-07T15:22:04.642Z,99157.50
2022-08-07T15:25:36.967Z,99150.47
2022-08-07T15:28:56.736Z,99159.06
2022-08-07T15:32:12.559Z,99154.38
2022-08-07T15:36:00.773Z,99155.16
2022-08-07T15:38:59.686Z,99155.50
2022-08-07T15:42:44.540Z,99151.09
2022-08-07T15:46:06.907Z,99144.91
2022-08-07T15:50:06.109Z,99137.69
2022-08-07T15:53:11.458Z,99142.94
2022-08-07T15:56:33.105Z,99143.69
2022-08-07T15:59:47.352Z,99125.81
2022-08-07T16:02:59.708Z,99132.00
2022-08-07T16:06:12.512Z,99124.75
2022-08-07T16:09:41.403Z,99125.91
2022-08-07T16:13:17.376Z,99121.59
2022-08-07T16:16:48.784Z,99121.75
2022-08-07T16:20:33.083Z,99121.84
2022-08-07T16:23:58.672Z,99119.41
2022-08-07T16:27:18.340Z,99127.31
2022-08-07T16:30:35.214Z,99119.19
2022-08-07T16:34:03.016Z,99129.72
2022-08-07T16:38:09.231Z,99124.47
2022-08-07T16:41:22.236Z,99129.00
2022-08-07T16:45:14.648Z,99129.25
2022-08-07T16:48:58.478Z,99116.94
2022-08-07T16:52:51.419Z,99124.09
2022-08-07T16:56:01.044Z,99130.31
2022-08-07T16:59:23.797Z,99122.38
2022-08-07T17:02:52.351Z,99118.00
2022-08-07T17:06:31.068Z,99123.38
2022-08-07T17:10:07.122Z,99118.94
2022-08-07T17:14:19.321Z,99118.91
2022-08-07T17:17:44.001Z,99127.75
2022-08-07T17:20:57.502Z,99120.69
2022-08-07T17:24:23.595Z,99126.81
2022-08-07T17:27:51.116Z,99131.22
2022-08-07T17:31:16.399Z,99121.50
2022-08-07T17:34:34.520Z,99126.75
2022-08-07T17:38:09.668Z,99121.41
2022-08-07T17:42:01.735Z,99132.72
2022-08-07T17:45:23.488Z,99129.84
2022-08-07T17:48:42.793Z,99136.34
2022-08-07T17:52:00.535Z,99136.66
2022-08-07T17:56:00.461Z,99146.84
2022-08-07T17:58:57.946Z,99141.06
2022-08-07T18:02:16.032Z,99144.22
2022-08-07T18:06:03.435Z,99149.19
2022-08-07T18:09:05.654Z,99159.16
2022-08-07T18:12:30.248Z,99155.19
2022-08-07T18:15:57.255Z,99156.50
2022-08-07T18:21:12.396Z,99159.59
2022-08-07T18:22:49.716Z,99166.13
2022-08-07T18:26:05.450Z,99169.09
2022-08-07T18:30:05.750Z,99175.44
2022-08-07T18:33:37.846Z,99184.34
2022-08-07T18:37:00.347Z,99180.91
2022-08-07T18:40:42.652Z,99187.22
2022-08-07T18:44:10.175Z,99191.56
2022-08-07T18:47:44.599Z,99194.28
2022-08-07T18:51:06.763Z,99197.78
2022-08-07T18:54:31.646Z,99204.13
2022-08-07T18:57:58.737Z,99203.28
2022-08-07T19:01:37.172Z,99200.00
2022-08-07T19:05:15.177Z,99206.31
2022-08-07T19:08:35.616Z,99210.72
2022-08-07T19:12:15.561Z,99218.34
2022-08-07T19:16:04.329Z,99232.16
2022-08-07T19:19:13.164Z,99230.69
2022-08-07T19:22:38.156Z,99238.94
2022-08-07T19:26:23.506Z,99251.81
2022-08-07T19:31:03.674Z,99263.13
2022-08-07T19:33:12.704Z,99265.47
2022-08-07T19:36:28.234Z,99269.41
2022-08-07T19:39:56.897Z,99277.09
2022-08-07T19:43:44.128Z,99278.25
2022-08-07T19:46:55.868Z,99275.03
2022-08-07T19:50:43.192Z,99287.19
2022-08-07T19:54:33.107Z,99284.34
2022-08-07T19:58:03.413Z,99290.38
2022-08-07T20:00:55.619Z,99285.28
2022-08-07T20:04:11.298Z,99297.72
2022-08-07T20:07:46.096Z,99296.50
2022-08-07T20:11:09.757Z,99296.06
2022-08-07T20:14:33.639Z,99305.19
2022-08-07T20:17:56.204Z,99302.03
